createdAt,value
2019-03-30T00:00:27.859Z,10.00
2019-03-30T00:01:08.751Z,10.10
2019-03-30T00:01:44.874Z,10.10
2019-03-30T00:02:23.372Z,10.10
2019-03-30T00:02:59.480Z,10.10
2019-03-30T00:03:37.429Z,10.10
2019-03-30T00:04:13.610Z,10.10
2019-03-30T00:04:50.230Z,10.00
2019-03-30T00:05:26.384Z,10.00
2019-03-30T00:06:02.486Z,10.00
2019-03-30T00:06:38.740Z,10.00
2019-03-30T00:07:14.903Z,10.00
2019-03-30T00:07:51.041Z,10.00
2019-03-30T00:08:27.169Z,10.00
2019-03-30T00:09:07.152Z,10.00
2019-03-30T00:09:43.263Z,10.00
2019-03-30T00:10:19.395Z,10.00
2019-03-30T00:10:55.629Z,9.90
2019-03-30T00:11:31.761Z,10.00
2019-03-30T00:12:07.889Z,9.90
2019-03-30T00:12:44.290Z,9.90
2019-03-30T00:13:20.464Z,9.90
2019-03-30T00:13:56.735Z,9.90
2019-03-30T00:14:33.359Z,9.90
2019-03-30T00:15:09.473Z,9.80
2019-03-30T00:15:47.190Z,9.80
2019-03-30T00:16:24.020Z,9.80
2019-03-30T00:17:00.584Z,9.80
2019-03-30T00:17:36.824Z,9.80
2019-03-30T00:18:15.044Z,9.80
2019-03-30T00:18:51.438Z,9.80
2019-03-30T00:19:34.907Z,9.80
2019-03-30T00:20:05.565Z,9.80
2019-03-30T00:20:41.824Z,9.80
2019-03-30T00:21:17.932Z,9.80
2019-03-30T00:21:54.088Z,9.80
2019-03-30T00:22:32.297Z,9.80
2019-03-30T00:23:08.538Z,9.80
2019-03-30T00:23:44.632Z,9.80
2019-03-30T00:24:20.732Z,9.80
2019-03-30T00:24:56.883Z,9.80
2019-03-30T00:25:33.063Z,9.80
2019-03-30T00:26:09.293Z,9.80
2019-03-30T00:26:45.725Z,9.80
2019-03-30T00:27:21.869Z,9.70
2019-03-30T00:27:57.952Z,9.70
2019-03-30T00:28:34.402Z,9.70
2019-03-30T00:29:11.558Z,9.70
2019-03-30T00:29:47.718Z,9.70
2019-03-30T00:30:23.889Z,9.70
2019-03-30T00:31:00.027Z,9.70
2019-03-30T00:31:36.181Z,9.70
2019-03-30T00:32:13.850Z,9.70
2019-03-30T00:32:49.958Z,9.70
2019-03-30T00:33:26.060Z,9.60
2019-03-30T00:34:02.266Z,9.60
2019-03-30T00:34:38.416Z,9.60
2019-03-30T00:35:14.822Z,9.60
2019-03-30T00:35:51.111Z,9.60
2019-03-30T00:36:27.780Z,9.60
2019-03-30T00:37:04.014Z,9.60
2019-03-30T00:37:40.146Z,9.60
2019-03-30T00:38:16.506Z,9.50
2019-03-30T00:38:52.787Z,9.50
2019-03-30T00:39:29.874Z,9.50
2019-03-30T00:40:06.068Z,9.50
2019-03-30T00:40:42.269Z,9.50
2019-03-30T00:41:18.390Z,9.50
2019-03-30T00:41:54.566Z,9.50
2019-03-30T00:42:30.803Z,9.50
2019-03-30T00:43:06.905Z,9.50
2019-03-30T00:43:43.048Z,9.50
2019-03-30T00:44:19.143Z,9.50
2019-03-30T00:44:55.318Z,9.50
2019-03-30T00:45:31.516Z,9.50
2019-03-30T00:46:07.649Z,9.50
2019-03-30T00:46:43.867Z,9.50
2019-03-30T00:47:20.337Z,9.50
2019-03-30T00:47:56.545Z,9.50
2019-03-30T00:48:32.661Z,9.50
2019-03-30T00:49:08.859Z,9.40
2019-03-30T00:49:49.651Z,9.40
2019-03-30T00:50:22.805Z,9.50
2019-03-30T00:50:59.371Z,9.40
2019-03-30T00:51:35.478Z,9.40
2019-03-30T00:52:14.391Z,9.40
2019-03-30T00:52:50.764Z,9.40
2019-03-30T00:53:26.873Z,9.40
2019-03-30T00:54:03.024Z,9.40
2019-03-30T00:54:39.176Z,9.40
2019-03-30T00:55:15.259Z,9.40
2019-03-30T00:55:51.400Z,9.40
2019-03-30T00:56:27.492Z,9.40
2019-03-30T00:57:03.670Z,9.40
2019-03-30T00:57:39.783Z,9.40
2019-03-30T00:58:15.970Z,9.40
2019-03-30T00:58:52.438Z,9.40
2019-03-30T00:59:28.624Z,9.40
2019-03-30T01:00:05.321Z,9.30
2019-03-30T01:00:41.456Z,9.30
2019-03-30T01:01:18.352Z,9.30
2019-03-30T01:01:54.602Z,9.30
2019-03-30T01:02:30.762Z,9.30
2019-03-30T01:03:07.151Z,9.30
2019-03-30T01:03:43.243Z,9.30
2019-03-30T01:04:19.337Z,9.30
2019-03-30T01:04:55.839Z,9.30
2019-03-30T01:05:32.289Z,9.30
2019-03-30T01:06:08.398Z,9.30
2019-03-30T01:06:45.862Z,9.30
2019-03-30T01:07:22.016Z,9.20
2019-03-30T01:07:58.149Z,9.20
2019-03-30T01:08:34.248Z,9.30
2019-03-30T01:09:10.596Z,9.20
2019-03-30T01:09:47.250Z,9.20
2019-03-30T01:10:23.632Z,9.20
2019-03-30T01:10:59.999Z,9.20
2019-03-30T01:11:36.247Z,9.20
2019-03-30T01:12:12.493Z,9.20
2019-03-30T01:12:48.920Z,9.20
2019-03-30T01:13:25.006Z,9.20
2019-03-30T01:14:02.404Z,9.20
2019-03-30T01:14:38.604Z,9.10
2019-03-30T01:15:14.841Z,9.20
2019-03-30T01:15:51.036Z,9.10
2019-03-30T01:16:27.147Z,9.10
2019-03-30T01:17:04.229Z,9.10
2019-03-30T01:17:40.331Z,9.10
2019-03-30T01:18:16.776Z,9.10
2019-03-30T01:18:52.892Z,9.10
2019-03-30T01:19:28.998Z,9.10
2019-03-30T01:20:05.401Z,9.10
2019-03-30T01:20:41.871Z,9.00
2019-03-30T01:21:18.022Z,9.10
2019-03-30T01:21:56.153Z,9.10
2019-03-30T01:22:32.100Z,9.10
2019-03-30T01:23:08.246Z,9.10
2019-03-30T01:23:44.703Z,9.10
2019-03-30T01:24:20.790Z,9.10
2019-03-30T01:24:56.958Z,9.00
2019-03-30T01:25:33.418Z,9.10
2019-03-30T01:26:09.549Z,9.10
2019-03-30T01:26:47.523Z,9.00
2019-03-30T01:27:23.645Z,9.00
2019-03-30T01:27:59.785Z,9.00
2019-03-30T01:28:35.898Z,9.00
2019-03-30T01:29:12.175Z,9.00
2019-03-30T01:29:48.295Z,9.00
2019-03-30T01:30:24.538Z,9.00
2019-03-30T01:31:00.638Z,9.00
2019-03-30T01:31:36.889Z,9.00
2019-03-30T01:32:13.318Z,9.00
2019-03-30T01:32:50.383Z,9.00
2019-03-30T01:33:26.544Z,9.00
2019-03-30T01:34:02.892Z,9.00
2019-03-30T01:34:39.049Z,9.00
2019-03-30T01:35:15.243Z,9.00
2019-03-30T01:35:51.878Z,9.00
2019-03-30T01:36:27.998Z,9.00
2019-03-30T01:37:04.106Z,9.00
2019-03-30T01:37:40.216Z,9.00
2019-03-30T01:38:16.311Z,9.00
2019-03-30T01:38:52.477Z,9.00
2019-03-30T01:39:28.589Z,9.00
2019-03-30T01:40:05.301Z,9.00
2019-03-30T01:40:41.390Z,9.00
2019-03-30T01:41:17.734Z,9.00
2019-03-30T01:41:53.846Z,9.10
2019-03-30T01:42:30.062Z,9.00
2019-03-30T01:43:06.142Z,9.10
2019-03-30T01:43:43.330Z,9.10
2019-03-30T01:44:19.436Z,9.10
2019-03-30T01:44:56.034Z,9.10
2019-03-30T01:45:32.264Z,9.10
2019-03-30T01:46:08.422Z,9.10
2019-03-30T01:46:44.707Z,9.10
2019-03-30T01:47:21.044Z,9.10
2019-03-30T01:47:57.574Z,9.00
2019-03-30T01:48:33.674Z,9.10
2019-03-30T01:49:09.758Z,9.10
2019-03-30T01:49:47.297Z,9.00
2019-03-30T01:50:23.695Z,9.10
2019-03-30T01:50:59.804Z,9.10
2019-03-30T01:51:36.171Z,9.10
2019-03-30T01:52:12.874Z,9.00
2019-03-30T01:52:49.061Z,9.10
2019-03-30T01:53:25.422Z,9.00
2019-03-30T01:54:02.575Z,9.10
2019-03-30T01:54:38.674Z,9.00
2019-03-30T01:55:14.867Z,9.00
2019-03-30T01:55:51.034Z,9.10
2019-03-30T01:56:27.141Z,9.10
2019-03-30T01:57:03.559Z,9.00
2019-03-30T01:57:39.657Z,9.10
2019-03-30T01:58:15.844Z,9.10
2019-03-30T01:58:52.372Z,9.10
2019-03-30T01:59:28.557Z,9.00
2019-03-30T02:00:05.558Z,9.00
2019-03-30T02:00:41.935Z,9.10
2019-03-30T02:01:18.226Z,9.00
2019-03-30T02:01:54.319Z,9.00
2019-03-30T02:02:30.382Z,9.10
2019-03-30T02:03:06.814Z,9.00
2019-03-30T02:03:42.900Z,9.00
2019-03-30T02:04:19.054Z,9.00
2019-03-30T02:04:55.157Z,9.00
2019-03-30T02:05:31.273Z,9.00
2019-03-30T02:06:07.371Z,9.00
2019-03-30T02:06:43.449Z,9.00
2019-03-30T02:07:19.583Z,9.00
2019-03-30T02:07:55.769Z,8.90
2019-03-30T02:08:31.870Z,8.90
2019-03-30T02:09:07.998Z,8.90
2019-03-30T02:09:44.091Z,8.90
2019-03-30T02:10:43.004Z,9.00
2019-03-30T02:11:19.120Z,8.90
2019-03-30T02:11:55.296Z,8.90
2019-03-30T02:12:31.637Z,9.00
2019-03-30T02:13:07.752Z,8.90
2019-03-30T02:13:43.840Z,8.90
2019-03-30T02:14:20.472Z,8.90
2019-03-30T02:14:57.662Z,8.90
2019-03-30T02:15:33.996Z,8.90
2019-03-30T02:16:10.100Z,8.90
2019-03-30T02:16:47.793Z,8.90
2019-03-30T02:17:23.880Z,8.90
2019-03-30T02:18:00.275Z,8.90
2019-03-30T02:18:36.344Z,8.90
2019-03-30T02:19:13.442Z,8.90
2019-03-30T02:19:49.532Z,8.80
2019-03-30T02:20:36.896Z,8.80
2019-03-30T02:21:15.047Z,8.90
2019-03-30T02:21:51.229Z,8.80
2019-03-30T02:22:28.282Z,8.80
2019-03-30T02:23:04.828Z,8.80
2019-03-30T02:23:41.255Z,8.80
2019-03-30T02:24:17.380Z,8.80
2019-03-30T02:24:53.852Z,8.80
2019-03-30T02:25:30.270Z,8.80
2019-03-30T02:26:06.794Z,8.80
2019-03-30T02:26:42.929Z,8.80
2019-03-30T02:27:19.304Z,8.70
2019-03-30T02:27:55.540Z,8.70
2019-03-30T02:28:31.666Z,8.70
2019-03-30T02:29:07.800Z,8.70
2019-03-30T02:29:44.242Z,8.70
2019-03-30T02:30:20.378Z,8.70
2019-03-30T02:30:56.476Z,8.70
2019-03-30T02:31:32.583Z,8.70
2019-03-30T02:32:08.758Z,8.70
2019-03-30T02:32:45.620Z,8.70
2019-03-30T02:33:21.739Z,8.60
2019-03-30T02:33:57.877Z,8.60
2019-03-30T02:34:34.287Z,8.60
2019-03-30T02:35:10.443Z,8.60
2019-03-30T02:35:46.871Z,8.60
2019-03-30T02:36:22.977Z,8.60
2019-03-30T02:36:59.083Z,8.60
2019-03-30T02:37:35.168Z,8.50
2019-03-30T02:38:12.696Z,8.50
2019-03-30T02:38:48.808Z,8.50
2019-03-30T02:39:24.892Z,8.50
2019-03-30T02:40:00.980Z,8.50
2019-03-30T02:40:37.060Z,8.50
2019-03-30T02:41:14.029Z,8.50
2019-03-30T02:41:51.072Z,8.50
2019-03-30T02:42:27.442Z,8.50
2019-03-30T02:43:03.552Z,8.50
2019-03-30T02:43:39.653Z,8.50
2019-03-30T02:44:15.787Z,8.50
2019-03-30T02:44:51.858Z,8.50
2019-03-30T02:45:27.958Z,8.50
2019-03-30T02:46:04.118Z,8.50
2019-03-30T02:46:41.208Z,8.50
2019-03-30T02:47:17.384Z,8.50
2019-03-30T02:47:54.488Z,8.50
2019-03-30T02:48:30.595Z,8.50
2019-03-30T02:49:06.818Z,8.50
2019-03-30T02:49:43.188Z,8.50
2019-03-30T02:50:19.300Z,8.50
2019-03-30T02:50:55.401Z,8.50
2019-03-30T02:51:31.790Z,8.50
2019-03-30T02:52:07.952Z,8.50
2019-03-30T02:52:44.055Z,8.50
2019-03-30T02:53:20.423Z,8.50
2019-03-30T02:53:56.564Z,8.50
2019-03-30T02:54:33.054Z,8.50
2019-03-30T02:55:12.550Z,8.50
2019-03-30T02:55:47.014Z,8.50
2019-03-30T02:56:23.150Z,8.50
2019-03-30T02:56:59.413Z,8.50
2019-03-30T02:57:37.489Z,8.50
2019-03-30T02:58:14.608Z,8.50
2019-03-30T02:58:50.703Z,8.50
2019-03-30T02:59:26.851Z,8.40
2019-03-30T03:00:03.426Z,8.40
2019-03-30T03:00:40.667Z,8.40
2019-03-30T03:01:16.852Z,8.40
2019-03-30T03:01:52.954Z,8.40
2019-03-30T03:02:29.288Z,8.40
2019-03-30T03:03:05.445Z,8.40
2019-03-30T03:03:41.544Z,8.40
2019-03-30T03:04:17.644Z,8.40
2019-03-30T03:04:54.729Z,8.40
2019-03-30T03:05:30.838Z,8.40
2019-03-30T03:06:07.222Z,8.40
2019-03-30T03:06:43.327Z,8.50
2019-03-30T03:07:19.431Z,8.50
2019-03-30T03:07:56.024Z,8.40
2019-03-30T03:08:32.224Z,8.50
2019-03-30T03:09:09.236Z,8.50
2019-03-30T03:09:45.404Z,8.50
2019-03-30T03:10:21.480Z,8.50
2019-03-30T03:10:57.572Z,8.50
2019-03-30T03:11:33.921Z,8.50
2019-03-30T03:12:10.003Z,8.40
2019-03-30T03:12:46.103Z,8.50
2019-03-30T03:13:22.212Z,8.40
2019-03-30T03:13:58.343Z,8.50
2019-03-30T03:14:34.525Z,8.50
2019-03-30T03:15:10.609Z,8.40
2019-03-30T03:15:48.002Z,8.40
2019-03-30T03:16:27.381Z,8.40
2019-03-30T03:17:01.964Z,8.40
2019-03-30T03:17:38.081Z,8.40
2019-03-30T03:18:14.450Z,8.40
2019-03-30T03:18:50.541Z,8.40
2019-03-30T03:19:26.640Z,8.40
2019-03-30T03:20:02.720Z,8.40
2019-03-30T03:20:38.876Z,8.40
2019-03-30T03:21:15.055Z,8.40
2019-03-30T03:21:51.128Z,8.40
2019-03-30T03:22:27.295Z,8.40
2019-03-30T03:23:03.408Z,8.40
2019-03-30T03:23:39.517Z,8.40
2019-03-30T03:24:15.607Z,8.40
2019-03-30T03:24:51.718Z,8.40
2019-03-30T03:25:28.022Z,8.40
2019-03-30T03:26:04.194Z,8.30
2019-03-30T03:26:40.288Z,8.30
2019-03-30T03:27:16.374Z,8.30
2019-03-30T03:27:52.813Z,8.30
2019-03-30T03:28:29.032Z,8.30
2019-03-30T03:29:05.135Z,8.30
2019-03-30T03:29:43.623Z,8.30
2019-03-30T03:30:19.199Z,8.30
2019-03-30T03:30:55.337Z,8.30
2019-03-30T03:31:31.493Z,8.30
2019-03-30T03:32:07.623Z,8.30
2019-03-30T03:32:43.737Z,8.30
2019-03-30T03:33:19.866Z,8.30
2019-03-30T03:33:55.983Z,8.30
2019-03-30T03:34:32.180Z,8.20
2019-03-30T03:35:08.332Z,8.20
2019-03-30T03:35:44.434Z,8.20
2019-03-30T03:36:20.614Z,8.20
2019-03-30T03:36:56.702Z,8.20
2019-03-30T03:37:44.692Z,8.10
2019-03-30T03:38:12.233Z,8.20
2019-03-30T03:38:48.343Z,8.10
2019-03-30T03:39:24.440Z,8.10
2019-03-30T03:40:01.061Z,8.10
2019-03-30T03:40:37.166Z,8.10
2019-03-30T03:41:14.188Z,8.10
2019-03-30T03:41:50.319Z,8.10
2019-03-30T03:42:26.765Z,8.10
2019-03-30T03:43:02.865Z,8.10
2019-03-30T03:43:39.013Z,8.10
2019-03-30T03:44:16.086Z,8.10
2019-03-30T03:44:52.177Z,8.00
2019-03-30T03:45:28.291Z,8.10
2019-03-30T03:46:05.475Z,8.00
2019-03-30T03:46:41.611Z,8.00
2019-03-30T03:47:17.706Z,8.00
2019-03-30T03:47:53.799Z,8.00
2019-03-30T03:48:29.875Z,8.00
2019-03-30T03:49:06.221Z,8.00
2019-03-30T03:49:42.302Z,8.00
2019-03-30T03:50:35.715Z,8.00
2019-03-30T03:51:25.820Z,8.00
2019-03-30T03:51:51.956Z,7.90
2019-03-30T03:52:28.041Z,7.90
2019-03-30T03:53:04.183Z,7.90
2019-03-30T03:53:40.542Z,7.90
2019-03-30T03:54:16.785Z,7.90
2019-03-30T03:54:53.015Z,7.90
2019-03-30T03:55:29.133Z,7.90
2019-03-30T03:56:06.058Z,7.90
2019-03-30T03:56:42.130Z,7.90
2019-03-30T03:57:18.500Z,7.90
2019-03-30T03:57:54.878Z,7.90
2019-03-30T03:58:33.746Z,7.90
2019-03-30T03:59:09.839Z,7.80
2019-03-30T03:59:46.126Z,7.80
2019-03-30T04:00:22.233Z,7.80
2019-03-30T04:00:59.087Z,7.80
2019-03-30T04:01:36.439Z,7.80
2019-03-30T04:02:12.999Z,7.80
2019-03-30T04:02:49.121Z,7.80
2019-03-30T04:03:25.272Z,7.80
2019-03-30T04:04:01.443Z,7.80
2019-03-30T04:04:38.920Z,7.80
2019-03-30T04:05:15.350Z,7.80
2019-03-30T04:05:51.648Z,7.80
2019-03-30T04:06:28.342Z,7.80
2019-03-30T04:07:04.430Z,7.80
2019-03-30T04:07:43.830Z,7.80
2019-03-30T04:08:19.937Z,7.80
2019-03-30T04:08:57.824Z,7.80
2019-03-30T04:09:34.905Z,7.80
2019-03-30T04:10:11.192Z,7.80
2019-03-30T04:10:50.341Z,7.90
2019-03-30T04:11:26.454Z,7.90
2019-03-30T04:12:02.808Z,7.90
2019-03-30T04:12:39.583Z,7.90
2019-03-30T04:13:15.734Z,7.90
2019-03-30T04:13:52.171Z,7.90
2019-03-30T04:14:28.269Z,7.90
2019-03-30T04:15:05.001Z,7.90
2019-03-30T04:15:41.477Z,7.90
2019-03-30T04:16:17.896Z,7.90
2019-03-30T04:16:54.268Z,7.90
2019-03-30T04:17:30.635Z,7.90
2019-03-30T04:18:06.747Z,7.80
2019-03-30T04:18:47.459Z,7.80
2019-03-30T04:19:20.723Z,7.80
2019-03-30T04:19:56.813Z,7.80
2019-03-30T04:20:33.226Z,7.80
2019-03-30T04:21:09.356Z,7.80
2019-03-30T04:21:45.561Z,7.80
2019-03-30T04:22:21.750Z,7.70
2019-03-30T04:22:58.424Z,7.70
2019-03-30T04:23:34.604Z,7.70
2019-03-30T04:24:10.701Z,7.70
2019-03-30T04:24:46.872Z,7.70
2019-03-30T04:25:23.281Z,7.70
2019-03-30T04:25:59.492Z,7.70
2019-03-30T04:26:35.586Z,7.70
2019-03-30T04:27:11.676Z,7.70
2019-03-30T04:27:48.345Z,7.70
2019-03-30T04:28:24.517Z,7.70
2019-03-30T04:29:00.623Z,7.60
2019-03-30T04:29:36.747Z,7.60
2019-03-30T04:30:12.940Z,7.60
2019-03-30T04:30:49.331Z,7.60
2019-03-30T04:31:25.402Z,7.60
2019-03-30T04:32:02.372Z,7.60
2019-03-30T04:32:38.481Z,7.60
2019-03-30T04:33:14.703Z,7.60
2019-03-30T04:33:50.787Z,7.60
2019-03-30T04:34:26.909Z,7.60
2019-03-30T04:35:03.011Z,7.60
2019-03-30T04:35:39.289Z,7.60
2019-03-30T04:36:16.234Z,7.60
2019-03-30T04:36:53.303Z,7.60
2019-03-30T04:37:29.659Z,7.50
2019-03-30T04:38:05.794Z,7.60
2019-03-30T04:38:41.909Z,7.50
2019-03-30T04:39:18.058Z,7.60
2019-03-30T04:39:54.127Z,7.50
2019-03-30T04:40:31.288Z,7.50
2019-03-30T04:41:08.326Z,7.50
2019-03-30T04:41:44.447Z,7.50
2019-03-30T04:42:20.526Z,7.50
2019-03-30T04:42:57.235Z,7.50
2019-03-30T04:43:33.334Z,7.50
2019-03-30T04:44:09.537Z,7.50
2019-03-30T04:44:45.904Z,7.50
2019-03-30T04:45:22.047Z,7.50
2019-03-30T04:45:58.131Z,7.50
2019-03-30T04:46:34.220Z,7.50
2019-03-30T04:47:10.711Z,7.50
2019-03-30T04:47:47.168Z,7.50
2019-03-30T04:48:23.254Z,7.50
2019-03-30T04:48:59.366Z,7.50
2019-03-30T04:49:35.472Z,7.50
2019-03-30T04:50:11.570Z,7.40
2019-03-30T04:50:48.762Z,7.40
2019-03-30T04:51:25.086Z,7.40
2019-03-30T04:52:01.201Z,7.40
2019-03-30T04:52:37.296Z,7.40
2019-03-30T04:53:13.496Z,7.40
2019-03-30T04:53:49.915Z,7.40
2019-03-30T04:54:26.361Z,7.40
2019-03-30T04:55:02.467Z,7.40
2019-03-30T04:55:38.560Z,7.40
2019-03-30T04:56:14.927Z,7.40
2019-03-30T04:56:51.004Z,7.40
2019-03-30T04:57:27.109Z,7.40
2019-03-30T04:58:03.211Z,7.40
2019-03-30T04:58:39.311Z,7.40
2019-03-30T04:59:16.541Z,7.40
2019-03-30T04:59:52.889Z,7.40
2019-03-30T05:00:29.011Z,7.30
2019-03-30T05:01:05.109Z,7.30
2019-03-30T05:01:41.309Z,7.30
2019-03-30T05:02:17.400Z,7.30
2019-03-30T05:02:53.954Z,7.30
2019-03-30T05:03:30.046Z,7.30
2019-03-30T05:04:06.123Z,7.30
2019-03-30T05:04:42.240Z,7.30
2019-03-30T05:05:18.664Z,7.30
2019-03-30T05:05:54.982Z,7.30
2019-03-30T05:06:31.199Z,7.30
2019-03-30T05:07:07.314Z,7.30
2019-03-30T05:07:43.396Z,7.30
2019-03-30T05:08:20.059Z,7.30
2019-03-30T05:08:57.183Z,7.30
2019-03-30T05:09:34.428Z,7.30
2019-03-30T05:10:10.581Z,7.30
2019-03-30T05:10:46.838Z,7.30
2019-03-30T05:11:22.954Z,7.30
2019-03-30T05:11:59.302Z,7.30
2019-03-30T05:12:35.687Z,7.20
2019-03-30T05:13:11.778Z,7.20
2019-03-30T05:13:49.439Z,7.20
2019-03-30T05:14:26.138Z,7.20
2019-03-30T05:15:02.510Z,7.20
2019-03-30T05:15:38.695Z,7.20
2019-03-30T05:16:15.384Z,7.20
2019-03-30T05:16:51.484Z,7.20
2019-03-30T05:17:27.600Z,7.20
2019-03-30T05:18:03.692Z,7.20
2019-03-30T05:18:39.787Z,7.20
2019-03-30T05:19:15.940Z,7.20
2019-03-30T05:19:52.147Z,7.20
2019-03-30T05:20:28.256Z,7.20
2019-03-30T05:21:04.325Z,7.20
2019-03-30T05:21:40.411Z,7.20
2019-03-30T05:22:16.824Z,7.20
2019-03-30T05:22:53.099Z,7.20
2019-03-30T05:23:29.459Z,7.20
2019-03-30T05:24:05.904Z,7.20
2019-03-30T05:24:42.019Z,7.20
2019-03-30T05:25:18.352Z,7.20
2019-03-30T05:25:54.771Z,7.20
2019-03-30T05:26:31.843Z,7.20
2019-03-30T05:27:08.176Z,7.20
2019-03-30T05:27:44.622Z,7.20
2019-03-30T05:28:20.710Z,7.20
2019-03-30T05:28:57.109Z,7.20
2019-03-30T05:29:33.268Z,7.20
2019-03-30T05:30:09.390Z,7.20
2019-03-30T05:30:45.484Z,7.20
2019-03-30T05:31:21.578Z,7.20
2019-03-30T05:31:57.746Z,7.20
2019-03-30T05:32:33.878Z,7.20
2019-03-30T05:33:10.946Z,7.20
2019-03-30T05:33:47.911Z,7.20
2019-03-30T05:34:24.002Z,7.20
2019-03-30T05:35:00.171Z,7.20
2019-03-30T05:35:36.543Z,7.20
2019-03-30T05:36:14.695Z,7.20
2019-03-30T05:36:52.104Z,7.20
2019-03-30T05:37:28.210Z,7.20
2019-03-30T05:38:04.361Z,7.20
2019-03-30T05:38:40.476Z,7.20
2019-03-30T05:39:16.578Z,7.20
2019-03-30T05:39:52.686Z,7.20
2019-03-30T05:40:28.773Z,7.20
2019-03-30T05:41:04.889Z,7.20
2019-03-30T05:41:40.963Z,7.20
2019-03-30T05:42:17.098Z,7.20
2019-03-30T05:42:53.209Z,7.20
2019-03-30T05:43:29.326Z,7.30
2019-03-30T05:44:05.425Z,7.20
2019-03-30T05:44:41.630Z,7.20
2019-03-30T05:45:18.095Z,7.30
2019-03-30T05:45:54.195Z,7.30
2019-03-30T05:46:30.337Z,7.30
2019-03-30T05:47:06.406Z,7.30
2019-03-30T05:47:42.881Z,7.30
2019-03-30T05:48:19.047Z,7.30
2019-03-30T05:48:55.159Z,7.30
2019-03-30T05:49:31.650Z,7.30
2019-03-30T05:50:07.774Z,7.30
2019-03-30T05:50:43.863Z,7.30
2019-03-30T05:51:20.076Z,7.40
2019-03-30T05:51:56.200Z,7.40
2019-03-30T05:52:35.478Z,7.40
2019-03-30T05:53:10.628Z,7.40
2019-03-30T05:53:48.358Z,7.40
2019-03-30T05:54:24.495Z,7.50
2019-03-30T05:55:00.858Z,7.50
2019-03-30T05:55:37.279Z,7.50
2019-03-30T05:56:15.051Z,7.50
2019-03-30T05:56:51.169Z,7.50
2019-03-30T05:57:27.283Z,7.60
2019-03-30T05:58:03.388Z,7.60
2019-03-30T05:58:39.726Z,7.60
2019-03-30T05:59:17.911Z,7.70
2019-03-30T05:59:55.834Z,7.70
2019-03-30T06:00:32.072Z,7.70
2019-03-30T06:01:08.214Z,7.70
2019-03-30T06:01:44.319Z,7.80
2019-03-30T06:02:20.421Z,7.80
2019-03-30T06:02:56.524Z,7.80
2019-03-30T06:03:32.607Z,7.80
2019-03-30T06:04:08.684Z,7.80
2019-03-30T06:04:44.777Z,7.80
2019-03-30T06:05:20.924Z,7.90
2019-03-30T06:05:57.018Z,7.90
2019-03-30T06:06:33.116Z,7.90
2019-03-30T06:07:09.498Z,7.90
2019-03-30T06:07:46.550Z,7.90
2019-03-30T06:08:22.655Z,7.90
2019-03-30T06:08:58.841Z,8.00
2019-03-30T06:09:35.159Z,8.00
2019-03-30T06:10:11.284Z,8.00
2019-03-30T06:10:47.390Z,8.00
2019-03-30T06:11:23.504Z,8.00
2019-03-30T06:11:59.651Z,8.00
2019-03-30T06:12:35.885Z,8.10
2019-03-30T06:13:11.962Z,8.10
2019-03-30T06:13:48.080Z,8.10
2019-03-30T06:14:24.187Z,8.10
2019-03-30T06:15:00.363Z,8.10
2019-03-30T06:15:36.564Z,8.10
2019-03-30T06:16:16.188Z,8.10
2019-03-30T06:16:52.463Z,8.10
2019-03-30T06:17:28.947Z,8.20
2019-03-30T06:18:05.698Z,8.20
2019-03-30T06:18:41.812Z,8.30
2019-03-30T06:19:18.123Z,8.30
2019-03-30T06:19:54.218Z,8.30
2019-03-30T06:20:30.579Z,8.30
2019-03-30T06:21:06.713Z,8.40
2019-03-30T06:21:42.897Z,8.40
2019-03-30T06:22:19.134Z,8.50
2019-03-30T06:22:56.917Z,8.50
2019-03-30T06:23:33.423Z,8.50
2019-03-30T06:24:10.792Z,8.60
2019-03-30T06:24:48.342Z,8.60
2019-03-30T06:25:24.554Z,8.60
2019-03-30T06:26:01.152Z,8.70
2019-03-30T06:26:37.462Z,8.70
2019-03-30T06:27:15.330Z,8.70
2019-03-30T06:27:52.015Z,8.80
2019-03-30T06:28:28.261Z,8.80
2019-03-30T06:29:06.158Z,8.80
2019-03-30T06:29:42.547Z,8.90
2019-03-30T06:30:23.309Z,8.90
2019-03-30T06:30:59.516Z,8.90
2019-03-30T06:31:36.252Z,9.00
2019-03-30T06:32:12.362Z,9.00
2019-03-30T06:32:50.956Z,9.10
2019-03-30T06:33:27.246Z,9.10
2019-03-30T06:34:03.678Z,9.10
2019-03-30T06:34:39.832Z,9.10
2019-03-30T06:35:18.607Z,9.20
2019-03-30T06:35:55.116Z,9.20
2019-03-30T06:36:31.378Z,9.20
2019-03-30T06:37:07.643Z,9.20
2019-03-30T06:37:44.205Z,9.30
2019-03-30T06:38:20.470Z,9.30
2019-03-30T06:38:56.655Z,9.40
2019-03-30T06:39:36.893Z,9.40
2019-03-30T06:40:12.386Z,9.40
2019-03-30T06:40:48.828Z,9.40
2019-03-30T06:41:25.071Z,9.50
2019-03-30T06:42:01.426Z,9.50
2019-03-30T06:42:37.796Z,9.50
2019-03-30T06:43:14.207Z,9.50
2019-03-30T06:43:50.487Z,9.60
2019-03-30T06:44:26.811Z,9.60
2019-03-30T06:45:03.168Z,9.60
2019-03-30T06:45:39.371Z,9.70
2019-03-30T06:46:15.816Z,9.70
2019-03-30T06:46:51.973Z,9.70
2019-03-30T06:47:28.203Z,9.70
2019-03-30T06:48:04.987Z,9.80
2019-03-30T06:48:41.272Z,9.80
2019-03-30T06:49:18.020Z,9.80
2019-03-30T06:49:54.308Z,9.80
2019-03-30T06:50:30.700Z,9.80
2019-03-30T06:51:07.380Z,9.90
2019-03-30T06:51:45.079Z,9.90
2019-03-30T06:52:21.289Z,9.90
2019-03-30T06:52:58.828Z,10.00
2019-03-30T06:53:37.543Z,10.00
2019-03-30T06:54:15.145Z,10.00
2019-03-30T06:54:51.314Z,10.10
2019-03-30T06:55:27.447Z,10.10
2019-03-30T06:56:03.707Z,10.10
2019-03-30T06:56:41.900Z,10.10
2019-03-30T06:57:19.359Z,10.10
2019-03-30T06:57:56.745Z,10.20
2019-03-30T06:58:33.332Z,10.20
2019-03-30T06:59:10.009Z,10.20
2019-03-30T06:59:46.256Z,10.30
2019-03-30T07:00:32.397Z,10.30
2019-03-30T07:01:08.595Z,10.30
2019-03-30T07:01:46.546Z,10.40
2019-03-30T07:02:22.795Z,10.40
2019-03-30T07:02:59.261Z,10.40
2019-03-30T07:03:35.451Z,10.40
2019-03-30T07:04:11.823Z,10.50
2019-03-30T07:04:48.267Z,10.50
2019-03-30T07:05:24.520Z,10.60
2019-03-30T07:06:01.311Z,10.60
2019-03-30T07:06:37.646Z,10.60
2019-03-30T07:07:14.514Z,10.70
2019-03-30T07:07:50.747Z,10.70
2019-03-30T07:08:27.030Z,10.80
2019-03-30T07:09:04.991Z,10.80
2019-03-30T07:09:41.420Z,10.80
2019-03-30T07:10:19.343Z,10.90
2019-03-30T07:10:56.019Z,10.90
2019-03-30T07:11:33.672Z,10.90
2019-03-30T07:12:09.930Z,10.90
2019-03-30T07:12:46.712Z,11.00
2019-03-30T07:13:22.922Z,11.00
2019-03-30T07:13:59.171Z,11.00
2019-03-30T07:14:35.696Z,11.00
2019-03-30T07:15:12.403Z,11.10
2019-03-30T07:15:51.684Z,11.10
2019-03-30T07:16:28.401Z,11.20
2019-03-30T07:17:05.009Z,11.20
2019-03-30T07:17:46.373Z,11.20
2019-03-30T07:18:24.627Z,11.20
2019-03-30T07:19:02.177Z,11.30
2019-03-30T07:19:40.309Z,11.30
2019-03-30T07:20:27.327Z,11.30
2019-03-30T07:21:07.494Z,11.40
2019-03-30T07:21:48.451Z,11.40
2019-03-30T07:22:25.170Z,11.40
2019-03-30T07:23:11.759Z,11.40
2019-03-30T07:23:40.587Z,11.50
2019-03-30T07:24:16.888Z,11.50
2019-03-30T07:24:53.506Z,11.50
2019-03-30T07:25:29.946Z,11.50
2019-03-30T07:26:06.811Z,11.60
2019-03-30T07:26:42.953Z,11.60
2019-03-30T07:27:19.134Z,11.60
2019-03-30T07:27:56.321Z,11.60
2019-03-30T07:28:32.568Z,11.70
2019-03-30T07:29:08.807Z,11.70
2019-03-30T07:29:45.547Z,11.70
2019-03-30T07:30:22.102Z,11.80
2019-03-30T07:30:58.380Z,11.80
2019-03-30T07:31:34.884Z,11.80
2019-03-30T07:32:11.007Z,11.80
2019-03-30T07:32:47.209Z,11.90
2019-03-30T07:33:23.363Z,11.90
2019-03-30T07:33:59.494Z,11.90
2019-03-30T07:34:36.142Z,12.00
2019-03-30T07:35:12.539Z,12.00
2019-03-30T07:35:48.746Z,12.00
2019-03-30T07:36:25.386Z,12.10
2019-03-30T07:37:01.707Z,12.10
2019-03-30T07:37:38.474Z,12.10
2019-03-30T07:38:18.407Z,12.10
2019-03-30T07:38:56.559Z,12.10
2019-03-30T07:39:33.046Z,12.10
2019-03-30T07:40:11.871Z,12.20
2019-03-30T07:40:50.318Z,12.20
2019-03-30T07:41:27.396Z,12.20
2019-03-30T07:42:03.734Z,12.30
2019-03-30T07:42:40.449Z,12.30
2019-03-30T07:43:18.070Z,12.30
2019-03-30T07:43:54.207Z,12.30
2019-03-30T07:44:30.482Z,12.30
2019-03-30T07:45:07.090Z,12.40
2019-03-30T07:45:44.615Z,12.40
2019-03-30T07:46:21.297Z,12.50
2019-03-30T07:46:58.727Z,12.50
2019-03-30T07:47:34.963Z,12.50
2019-03-30T07:48:11.208Z,12.60
2019-03-30T07:48:48.703Z,12.60
2019-03-30T07:49:25.132Z,12.60
2019-03-30T07:50:01.418Z,12.60
2019-03-30T07:50:37.802Z,12.70
2019-03-30T07:51:16.297Z,12.70
2019-03-30T07:51:52.497Z,12.70
2019-03-30T07:52:30.348Z,12.70
2019-03-30T07:53:08.118Z,12.80
2019-03-30T07:53:45.126Z,12.80
2019-03-30T07:54:24.005Z,12.90
2019-03-30T07:55:00.454Z,12.90
2019-03-30T07:55:37.142Z,12.90
2019-03-30T07:56:13.330Z,13.00
2019-03-30T07:57:03.901Z,13.00
2019-03-30T07:57:31.881Z,13.00
2019-03-30T07:58:08.458Z,13.00
2019-03-30T07:58:45.397Z,13.10
2019-03-30T07:59:22.177Z,13.10
2019-03-30T07:59:58.654Z,13.20
2019-03-30T08:00:35.164Z,13.20
2019-03-30T08:01:12.655Z,13.20
2019-03-30T08:01:49.153Z,13.20
2019-03-30T08:02:25.872Z,13.20
2019-03-30T08:03:02.412Z,13.30
2019-03-30T08:03:38.579Z,13.30
2019-03-30T08:04:14.894Z,13.30